Terminal Aerodrome Forecast
Issued by NWS

Home | Current Version | Previous Version | Text Only | Print | Product List | Glossary On
Versions: 1 2 3 4 5 6 7 8 9 10 11 12 13 14 15 16 17 18 19 20 21 22 23 24 25 26 27 28 29 30 31 32 33 34 35 36 37
000
FTUS43 KGLD 171638 AAA
TAFMCK
TAF AMD
KMCK 171638Z 1717/1812 09012G20KT P6SM FEW009 BKN014
     FM172000 10012G20KT P6SM BKN025
     FM180300 11015KT 5SM -TSRA BKN030CB
     FM180900 08005KT 1SM BR BKN010=

USA.gov is the U.S. government's official web portal to all federal, state and local government web resources and services.